Crystal City, Virginia
Current Conditions -  °F | °C
As of 4:52 AM on Tuesday 27 Jan 2015 (Local Time) from KDCA Reporting Station
Light Snow Light Snow  
Wind Chill: 23°   Ceiling: 3100
Heat Index: 32°   Visibility: 7mi
Dew Point: 23°   Wind: 12mph
Humidity: 69%   Direction: 330°NNW
Pressure: 29.76"   Gusts: NA
Location:  38.8565°N, 77.0512°W
Report Text: KDCA 270952Z 33010KT 7SM -SN FEW016 OVC031 00/M05 A2976 RMK AO2 SLP075 P0000 T00001050 $
Loading
Personal Weather Stations






























Interactive Weather Map New forecast layout! Learn more

10-Day Weather Forecast

Advertisements
Track Severe Weather on mobile